Galt, Canada
Current Conditions -  °F | °C
As of 12:28 PM on Sunday 23 Nov 2014 (Local Time) from CYKF Reporting Station
Haze Haze  
Wind Chill: 40°   Ceiling: 500
Heat Index: 45°   Visibility: 4mi
Dew Point: 43°   Wind: 9mph
Humidity: 93%   Direction: 180°S
Pressure: 29.93"   Gusts: NA
Location:  43.35°N, 80.3°W
Report Text: CYKF 231728Z AUTO 18008KT 4SM BR OVC005 07/06 A2993 RMK PRESFR SLP141
Loading
Personal Weather Stations






























Interactive Weather Map New forecast layout! Learn more

10-Day Weather Forecast

Advertisements
Track Severe Weather on mobile